createdAt,value
2017-08-19T00:00:54.946Z,19.54
2017-08-19T00:01:56.831Z,19.40
2017-08-19T00:02:58.652Z,19.41
2017-08-19T00:04:00.482Z,19.28
2017-08-19T00:05:02.367Z,19.26
2017-08-19T00:06:04.208Z,19.39
2017-08-19T00:07:06.032Z,19.43
2017-08-19T00:08:20.192Z,19.61
2017-08-19T00:09:22.073Z,19.62
2017-08-19T00:10:23.960Z,19.86
2017-08-19T00:11:25.853Z,20.03
2017-08-19T00:12:27.676Z,20.06
2017-08-19T00:13:29.506Z,20.21
2017-08-19T00:14:31.398Z,20.28
2017-08-19T00:15:33.277Z,20.38
2017-08-19T00:16:35.171Z,20.48
2017-08-19T00:17:49.334Z,20.51
2017-08-19T00:18:51.227Z,20.51
2017-08-19T00:19:53.124Z,20.39
2017-08-19T00:20:55.011Z,20.57
2017-08-19T00:21:56.833Z,20.55
2017-08-19T00:22:58.674Z,20.59
2017-08-19T00:24:00.555Z,20.57
2017-08-19T00:25:02.439Z,20.61
2017-08-19T00:26:04.325Z,20.58
2017-08-19T00:27:18.490Z,20.66
2017-08-19T00:28:20.384Z,20.70
2017-08-19T00:29:22.279Z,20.70
2017-08-19T00:30:24.166Z,20.58
2017-08-19T00:31:25.987Z,20.38
2017-08-19T00:32:27.815Z,20.29
2017-08-19T00:33:29.698Z,20.21
2017-08-19T00:34:31.586Z,20.23
2017-08-19T00:35:33.470Z,20.18
2017-08-19T00:36:47.683Z,19.98
2017-08-19T00:37:49.564Z,19.76
2017-08-19T00:38:51.466Z,19.59
2017-08-19T00:39:53.348Z,19.37
2017-08-19T00:40:55.173Z,19.43
2017-08-19T00:41:57.010Z,19.41
2017-08-19T00:42:58.894Z,19.50
2017-08-19T00:44:00.780Z,19.50
2017-08-19T00:45:02.668Z,19.62
2017-08-19T00:46:16.879Z,19.69
2017-08-19T00:47:18.762Z,19.73
2017-08-19T00:48:20.648Z,19.84
2017-08-19T00:49:22.527Z,19.78
2017-08-19T00:50:24.362Z,19.66
2017-08-19T00:51:26.189Z,19.59
2017-08-19T00:52:28.072Z,19.66
2017-08-19T00:53:29.956Z,19.76
2017-08-19T00:54:31.845Z,19.81
2017-08-19T00:55:46.054Z,20.02
2017-08-19T00:56:47.936Z,20.10
2017-08-19T00:57:49.830Z,20.11
2017-08-19T00:58:51.713Z,20.24
2017-08-19T00:59:53.537Z,20.21
2017-08-19T01:00:55.361Z,20.23
2017-08-19T01:01:57.246Z,20.18
2017-08-19T01:02:59.128Z,20.14
2017-08-19T01:04:01.014Z,20.06
2017-08-19T01:05:15.179Z,19.91
2017-08-19T01:06:17.073Z,19.91
2017-08-19T01:07:18.969Z,19.81
2017-08-19T01:08:20.856Z,19.91
2017-08-19T01:09:22.696Z,19.92
2017-08-19T01:10:24.520Z,19.86
2017-08-19T01:11:26.416Z,19.83
2017-08-19T01:12:28.300Z,19.76
2017-08-19T01:13:30.187Z,19.69
2017-08-19T01:14:44.346Z,19.68
2017-08-19T01:15:46.239Z,19.62
2017-08-19T01:16:48.126Z,19.54
2017-08-19T01:17:50.007Z,19.46
2017-08-19T01:18:51.829Z,19.29
2017-08-19T01:19:53.655Z,19.11
2017-08-19T01:20:55.540Z,19.00
2017-08-19T01:21:57.423Z,19.16
2017-08-19T01:22:59.307Z,19.11
2017-08-19T01:24:13.468Z,19.23
2017-08-19T01:25:15.351Z,19.43
2017-08-19T01:26:17.242Z,19.47
2017-08-19T01:27:19.135Z,19.55
2017-08-19T01:28:20.971Z,19.61
2017-08-19T01:29:22.794Z,19.59
2017-08-19T01:30:24.690Z,19.61
2017-08-19T01:31:26.575Z,19.61
2017-08-19T01:32:28.460Z,19.62
2017-08-19T01:33:42.631Z,19.61
2017-08-19T01:34:44.514Z,19.47
2017-08-19T01:35:46.410Z,19.36
2017-08-19T01:36:48.293Z,19.32
2017-08-19T01:37:50.119Z,19.33
2017-08-19T01:38:51.945Z,19.31
2017-08-19T01:39:53.843Z,19.43
2017-08-19T01:40:55.727Z,19.33
2017-08-19T01:41:57.610Z,19.21
2017-08-19T01:43:11.768Z,19.28
2017-08-19T01:44:13.651Z,19.22
2017-08-19T01:45:15.545Z,19.16
2017-08-19T01:46:17.431Z,19.07
2017-08-19T01:47:19.255Z,19.07
2017-08-19T01:48:21.079Z,18.99
2017-08-19T01:49:22.964Z,18.98
2017-08-19T01:50:24.859Z,19.08
2017-08-19T01:51:26.743Z,19.11
2017-08-19T01:52:40.903Z,19.18
2017-08-19T01:53:42.789Z,19.11
2017-08-19T01:54:44.678Z,19.06
2017-08-19T01:55:46.565Z,19.06
2017-08-19T01:56:48.392Z,19.07
2017-08-19T01:57:50.216Z,19.16
2017-08-19T01:58:52.101Z,19.00
2017-08-19T01:59:53.986Z,18.98
2017-08-19T02:00:55.871Z,18.84
2017-08-19T02:02:10.031Z,18.76
2017-08-19T02:03:11.915Z,18.67
2017-08-19T02:04:13.804Z,18.70
2017-08-19T02:05:15.694Z,18.73
2017-08-19T02:06:17.519Z,18.63
2017-08-19T02:07:19.346Z,18.66
2017-08-19T02:08:21.230Z,18.51
2017-08-19T02:09:23.114Z,18.51
2017-08-19T02:10:25.000Z,18.45
2017-08-19T02:11:39.163Z,18.50
2017-08-19T02:12:41.047Z,18.48
2017-08-19T02:13:42.938Z,18.45
2017-08-19T02:14:44.825Z,18.45
2017-08-19T02:15:46.651Z,18.33
2017-08-19T02:16:48.488Z,18.37
2017-08-19T02:17:50.376Z,18.29
2017-08-19T02:18:52.266Z,18.27
2017-08-19T02:19:54.152Z,18.11
2017-08-19T02:21:08.311Z,18.11
2017-08-19T02:22:10.208Z,18.15
2017-08-19T02:23:12.095Z,18.10
2017-08-19T02:24:13.986Z,18.03
2017-08-19T02:25:15.821Z,18.05
2017-08-19T02:26:17.647Z,18.03
2017-08-19T02:27:19.535Z,18.15
2017-08-19T02:28:21.423Z,18.18
2017-08-19T02:29:23.314Z,18.18
2017-08-19T02:30:37.467Z,18.17
2017-08-19T02:31:39.363Z,18.17
2017-08-19T02:32:41.264Z,18.05
2017-08-19T02:33:43.155Z,18.03
2017-08-19T02:34:44.985Z,18.14
2017-08-19T02:35:46.805Z,18.05
2017-08-19T02:36:48.693Z,18.05
2017-08-19T02:37:50.591Z,18.12
2017-08-19T02:38:52.482Z,18.08
2017-08-19T02:40:06.689Z,18.17
2017-08-19T02:41:08.575Z,18.17
2017-08-19T02:42:10.468Z,18.21
2017-08-19T02:43:12.361Z,18.23
2017-08-19T02:44:14.182Z,18.18
2017-08-19T02:45:16.007Z,18.17
2017-08-19T02:46:17.895Z,18.10
2017-08-19T02:47:19.782Z,18.02
2017-08-19T02:48:21.679Z,17.93
2017-08-19T02:49:35.836Z,17.99
2017-08-19T02:50:37.717Z,17.89
2017-08-19T02:51:39.603Z,17.97
2017-08-19T02:52:41.488Z,17.92
2017-08-19T02:53:43.313Z,18.10
2017-08-19T02:54:45.138Z,18.02
2017-08-19T02:55:47.024Z,17.99
2017-08-19T02:56:48.908Z,18.02
2017-08-19T02:57:50.794Z,18.05
2017-08-19T02:59:04.952Z,18.11
2017-08-19T03:00:06.837Z,18.00
2017-08-19T03:01:08.729Z,18.03
2017-08-19T03:02:10.615Z,18.07
2017-08-19T03:03:12.440Z,17.95
2017-08-19T03:04:14.267Z,18.02
2017-08-19T03:05:16.150Z,17.95
2017-08-19T03:06:18.035Z,17.97
2017-08-19T03:07:19.921Z,17.92
2017-08-19T03:08:34.076Z,17.92
2017-08-19T03:09:35.974Z,17.95
2017-08-19T03:10:37.865Z,17.81
2017-08-19T03:11:39.754Z,17.81
2017-08-19T03:12:41.578Z,17.71
2017-08-19T03:13:43.416Z,17.66
2017-08-19T03:14:45.303Z,17.74
2017-08-19T03:15:47.190Z,17.77
2017-08-19T03:16:49.076Z,17.81
2017-08-19T03:18:03.238Z,17.89
2017-08-19T03:19:05.125Z,17.93
2017-08-19T03:20:07.017Z,17.95
2017-08-19T03:21:08.908Z,17.92
2017-08-19T03:22:10.729Z,18.03
2017-08-19T03:23:12.568Z,18.03
2017-08-19T03:24:14.453Z,17.95
2017-08-19T03:25:16.343Z,17.82
2017-08-19T03:26:18.228Z,17.82
2017-08-19T03:27:32.384Z,17.82
2017-08-19T03:28:34.269Z,17.87
2017-08-19T03:29:36.158Z,17.82
2017-08-19T03:30:38.046Z,17.82
2017-08-19T03:31:39.869Z,17.77
2017-08-19T03:32:41.696Z,17.90
2017-08-19T03:33:43.583Z,17.71
2017-08-19T03:34:45.469Z,17.71
2017-08-19T03:35:47.368Z,17.70
2017-08-19T03:37:01.523Z,17.72
2017-08-19T03:38:03.416Z,17.70
2017-08-19T03:39:05.312Z,17.63
2017-08-19T03:40:07.197Z,17.59
2017-08-19T03:41:09.042Z,17.63
2017-08-19T03:42:10.868Z,17.70
2017-08-19T03:43:12.755Z,17.64
2017-08-19T03:44:14.638Z,17.66
2017-08-19T03:45:16.524Z,17.71
2017-08-19T03:46:30.683Z,17.70
2017-08-19T03:47:32.565Z,17.62
2017-08-19T03:48:34.460Z,17.66
2017-08-19T03:49:36.346Z,17.64
2017-08-19T03:50:38.173Z,17.70
2017-08-19T03:51:39.998Z,17.72
2017-08-19T03:52:41.882Z,17.58
2017-08-19T03:53:43.766Z,17.71
2017-08-19T03:54:45.651Z,17.63
2017-08-19T03:55:59.809Z,17.71
2017-08-19T03:57:01.693Z,17.59
2017-08-19T03:58:03.582Z,17.71
2017-08-19T03:59:05.472Z,17.74
2017-08-19T04:00:07.294Z,17.90
2017-08-19T04:01:09.131Z,17.86
2017-08-19T04:02:11.017Z,17.87
2017-08-19T04:03:12.902Z,17.82
2017-08-19T04:04:14.788Z,17.82
2017-08-19T04:05:28.999Z,17.66
2017-08-19T04:06:30.881Z,17.63
2017-08-19T04:07:32.766Z,17.79
2017-08-19T04:08:34.654Z,17.84
2017-08-19T04:09:36.481Z,17.82
2017-08-19T04:10:38.311Z,17.95
2017-08-19T04:11:40.196Z,17.93
2017-08-19T04:12:42.084Z,18.05
2017-08-19T04:13:43.967Z,18.11
2017-08-19T04:14:58.139Z,18.26
2017-08-19T04:16:00.024Z,18.26
2017-08-19T04:17:01.914Z,18.29
2017-08-19T04:18:03.801Z,18.30
2017-08-19T04:19:05.627Z,18.35
2017-08-19T04:20:07.455Z,18.33
2017-08-19T04:21:09.344Z,18.37
2017-08-19T04:22:11.231Z,18.27
2017-08-19T04:23:13.117Z,18.25
2017-08-19T04:24:27.278Z,18.07
2017-08-19T04:25:29.163Z,18.02
2017-08-19T04:26:31.065Z,18.15
2017-08-19T04:27:32.953Z,18.15
2017-08-19T04:28:34.795Z,18.15
2017-08-19T04:29:36.625Z,18.07
2017-08-19T04:30:38.536Z,18.05
2017-08-19T04:31:40.424Z,18.05
2017-08-19T04:32:42.310Z,18.05
2017-08-19T04:33:56.483Z,18.00
2017-08-19T04:34:58.371Z,18.05
2017-08-19T04:36:00.262Z,18.02
2017-08-19T04:37:02.152Z,18.15
2017-08-19T04:38:03.982Z,18.25
2017-08-19T04:39:05.810Z,18.29
2017-08-19T04:40:07.696Z,18.32
2017-08-19T04:41:09.585Z,18.32
2017-08-19T04:42:11.472Z,18.35
2017-08-19T04:43:25.635Z,18.33
2017-08-19T04:44:27.520Z,18.33
2017-08-19T04:45:29.419Z,18.44
2017-08-19T04:46:31.310Z,18.45
2017-08-19T04:47:33.138Z,18.47
2017-08-19T04:48:34.967Z,18.39
2017-08-19T04:49:36.855Z,18.47
2017-08-19T04:50:38.742Z,18.47
2017-08-19T04:51:40.630Z,18.37
2017-08-19T04:52:54.810Z,18.27
2017-08-19T04:53:56.690Z,18.27
2017-08-19T04:54:58.581Z,18.21
2017-08-19T04:56:00.470Z,18.14
2017-08-19T04:57:02.302Z,18.12
2017-08-19T04:58:04.142Z,18.14
2017-08-19T04:59:06.031Z,18.18
2017-08-19T05:00:07.917Z,18.20
2017-08-19T05:01:09.806Z,18.25
2017-08-19T05:02:23.979Z,18.23
2017-08-19T05:03:25.865Z,18.23
2017-08-19T05:04:27.760Z,18.25
2017-08-19T05:05:29.649Z,18.25
2017-08-19T05:06:31.479Z,18.32
2017-08-19T05:07:33.308Z,18.42
2017-08-19T05:08:35.195Z,18.41
2017-08-19T05:09:37.084Z,18.45
2017-08-19T05:10:38.971Z,18.50
2017-08-19T05:11:53.143Z,18.47
2017-08-19T05:12:55.028Z,18.48
2017-08-19T05:13:56.919Z,18.48
2017-08-19T05:14:58.807Z,18.48
2017-08-19T05:16:00.635Z,18.52
2017-08-19T05:17:02.465Z,18.42
2017-08-19T05:18:04.351Z,18.50
2017-08-19T05:19:06.239Z,18.50
2017-08-19T05:20:08.125Z,18.63
2017-08-19T05:21:22.297Z,18.63
2017-08-19T05:22:24.184Z,18.72
2017-08-19T05:23:26.084Z,18.81
2017-08-19T05:24:27.976Z,18.84
2017-08-19T05:25:29.806Z,18.94
2017-08-19T05:26:31.635Z,19.11
2017-08-19T05:27:33.524Z,19.10
2017-08-19T05:28:35.410Z,19.22
2017-08-19T05:29:37.298Z,19.22
2017-08-19T05:30:51.461Z,19.29
2017-08-19T05:31:53.348Z,19.40
2017-08-19T05:32:55.240Z,19.37
2017-08-19T05:33:57.132Z,19.47
2017-08-19T05:34:58.960Z,19.56
2017-08-19T05:36:00.790Z,19.50
2017-08-19T05:37:02.679Z,19.62
2017-08-19T05:38:04.567Z,19.61
2017-08-19T05:39:06.454Z,19.62
2017-08-19T05:40:20.628Z,19.69
2017-08-19T05:41:22.514Z,19.73
2017-08-19T05:42:24.405Z,19.81
2017-08-19T05:43:26.295Z,19.83
2017-08-19T05:44:28.123Z,19.83
2017-08-19T05:45:29.954Z,19.84
2017-08-19T05:46:31.851Z,19.91
2017-08-19T05:47:33.737Z,19.95
2017-08-19T05:48:35.626Z,19.84
2017-08-19T05:49:49.842Z,19.95
2017-08-19T05:50:51.728Z,20.05
2017-08-19T05:51:53.618Z,20.13
2017-08-19T05:52:55.524Z,20.11
2017-08-19T05:53:57.352Z,20.17
2017-08-19T05:54:59.183Z,20.16
2017-08-19T05:56:01.072Z,20.26
2017-08-19T05:57:02.962Z,20.17
2017-08-19T05:58:04.850Z,20.24
2017-08-19T05:59:19.026Z,20.20
2017-08-19T06:00:20.914Z,20.21
2017-08-19T06:01:22.814Z,20.24
2017-08-19T06:02:24.711Z,20.20
2017-08-19T06:03:26.543Z,20.21
2017-08-19T06:04:28.373Z,20.26
2017-08-19T06:05:30.267Z,20.32
2017-08-19T06:06:32.156Z,20.38
2017-08-19T06:07:34.043Z,20.36
2017-08-19T06:08:48.211Z,20.39
2017-08-19T06:09:50.097Z,20.55
2017-08-19T06:10:51.998Z,20.59
2017-08-19T06:11:53.892Z,20.51
2017-08-19T06:12:55.720Z,20.54
2017-08-19T06:13:57.551Z,20.57
2017-08-19T06:14:59.440Z,20.62
2017-08-19T06:16:01.330Z,20.55
2017-08-19T06:17:03.220Z,20.58
2017-08-19T06:18:17.396Z,20.52
2017-08-19T06:19:19.284Z,20.58
2017-08-19T06:20:21.185Z,20.67
2017-08-19T06:21:23.078Z,20.67
2017-08-19T06:22:24.907Z,20.85
2017-08-19T06:23:26.739Z,20.76
2017-08-19T06:24:28.630Z,20.84
2017-08-19T06:25:30.522Z,20.79
2017-08-19T06:26:32.420Z,20.82
2017-08-19T06:27:46.582Z,20.87
2017-08-19T06:28:48.472Z,20.97
2017-08-19T06:29:50.365Z,20.95
2017-08-19T06:30:52.257Z,20.85
2017-08-19T06:31:54.086Z,20.80
2017-08-19T06:32:55.918Z,20.74
2017-08-19T06:33:57.806Z,20.72
2017-08-19T06:34:59.697Z,20.69
2017-08-19T06:36:01.581Z,20.73
2017-08-19T06:37:15.759Z,20.69
2017-08-19T06:38:17.646Z,20.66
2017-08-19T06:39:19.540Z,20.77
2017-08-19T06:40:21.432Z,20.69
2017-08-19T06:41:23.266Z,20.72
2017-08-19T06:42:25.097Z,20.84
2017-08-19T06:43:26.987Z,20.87
2017-08-19T06:44:28.876Z,20.89
2017-08-19T06:45:30.769Z,20.94
2017-08-19T06:46:44.933Z,20.91
2017-08-19T06:47:46.821Z,20.82
2017-08-19T06:48:48.712Z,20.74
2017-08-19T06:49:50.605Z,20.69
2017-08-19T06:50:52.435Z,20.61
2017-08-19T06:51:54.278Z,20.58
2017-08-19T06:52:56.168Z,20.66
2017-08-19T06:53:58.061Z,20.62
2017-08-19T06:54:59.953Z,20.73
2017-08-19T06:56:14.099Z,20.74
2017-08-19T06:57:15.940Z,20.77
2017-08-19T06:58:17.769Z,20.84
2017-08-19T06:59:19.664Z,20.80
2017-08-19T07:00:21.555Z,20.73
2017-08-19T07:01:23.434Z,20.61
2017-08-19T07:02:25.264Z,20.59
2017-08-19T07:03:27.097Z,20.58
2017-08-19T07:04:28.987Z,20.42
2017-08-19T07:05:43.212Z,20.36
2017-08-19T07:06:45.101Z,20.58
2017-08-19T07:07:46.993Z,20.51
2017-08-19T07:08:48.884Z,20.57
2017-08-19T07:09:50.730Z,20.61
2017-08-19T07:10:52.557Z,20.59
2017-08-19T07:11:54.453Z,20.66
2017-08-19T07:12:56.342Z,20.69
2017-08-19T07:13:58.444Z,20.62
2017-08-19T07:15:13.186Z,20.70
2017-08-19T07:16:15.125Z,20.85
2017-08-19T07:17:17.018Z,20.84
2017-08-19T07:18:18.910Z,20.98
2017-08-19T07:19:20.742Z,21.17
2017-08-19T07:20:22.575Z,21.31
2017-08-19T07:21:24.462Z,21.31
2017-08-19T07:22:26.354Z,21.14
2017-08-19T07:23:28.241Z,21.06
2017-08-19T07:24:42.526Z,20.92
2017-08-19T07:25:44.392Z,20.94
2017-08-19T07:26:46.286Z,21.03
2017-08-19T07:27:48.196Z,21.04
2017-08-19T07:28:50.038Z,20.99
2017-08-19T07:29:51.871Z,21.09
2017-08-19T07:30:53.787Z,20.99
2017-08-19T07:31:55.676Z,20.99
2017-08-19T07:32:57.565Z,21.01
2017-08-19T07:34:11.742Z,21.17
2017-08-19T07:35:13.632Z,21.24
2017-08-19T07:36:15.536Z,21.32
2017-08-19T07:37:17.430Z,21.35
2017-08-19T07:38:19.264Z,21.28
2017-08-19T07:39:21.109Z,21.25
2017-08-19T07:40:23.000Z,21.27
2017-08-19T07:41:24.896Z,21.29
2017-08-19T07:42:26.786Z,21.40
2017-08-19T07:43:40.955Z,21.61
2017-08-19T07:44:42.845Z,21.79
2017-08-19T07:45:44.741Z,21.92
2017-08-19T07:46:46.636Z,22.15
2017-08-19T07:47:48.470Z,22.14
2017-08-19T07:48:50.303Z,22.15
2017-08-19T07:49:52.194Z,22.21
2017-08-19T07:50:54.083Z,22.27
2017-08-19T07:51:55.974Z,22.27
2017-08-19T07:53:10.141Z,22.31
2017-08-19T07:54:12.031Z,22.35
2017-08-19T07:55:13.923Z,22.18
2017-08-19T07:56:15.816Z,22.03
2017-08-19T07:57:17.646Z,21.74
2017-08-19T07:58:19.490Z,21.69
2017-08-19T07:59:21.382Z,21.62
2017-08-19T08:00:23.272Z,21.77
2017-08-19T08:01:25.167Z,21.79
2017-08-19T08:02:39.339Z,21.91
2017-08-19T08:03:41.228Z,21.92
2017-08-19T08:04:43.125Z,22.07
2017-08-19T08:05:45.022Z,22.12
2017-08-19T08:06:46.859Z,22.18
2017-08-19T08:07:48.689Z,22.09
2017-08-19T08:08:50.587Z,22.15
2017-08-19T08:09:52.480Z,21.96
2017-08-19T08:10:54.373Z,21.77
2017-08-19T08:12:08.567Z,21.61
2017-08-19T08:13:10.452Z,21.52
2017-08-19T08:14:12.376Z,21.54
2017-08-19T08:15:15.113Z,21.69
2017-08-19T08:16:17.385Z,21.75
2017-08-19T08:17:19.920Z,21.75
2017-08-19T08:18:21.894Z,21.79
2017-08-19T08:19:23.817Z,21.71
2017-08-19T08:20:25.707Z,21.75
2017-08-19T08:21:39.920Z,21.77
2017-08-19T08:22:41.876Z,21.90
2017-08-19T08:23:43.805Z,21.94
2017-08-19T08:24:45.703Z,21.83
2017-08-19T08:25:47.553Z,21.69
2017-08-19T08:26:49.819Z,21.62
2017-08-19T08:27:51.876Z,21.65
2017-08-19T08:28:54.177Z,21.77
2017-08-19T08:29:56.387Z,21.94
2017-08-19T08:31:10.595Z,22.17
2017-08-19T08:32:12.531Z,22.27
2017-08-19T08:33:14.798Z,22.52
2017-08-19T08:34:16.775Z,22.64
2017-08-19T08:35:18.613Z,22.54
2017-08-19T08:36:20.452Z,22.33
2017-08-19T08:37:22.355Z,22.33
2017-08-19T08:38:24.287Z,22.36
2017-08-19T08:39:26.633Z,22.61
2017-08-19T08:40:40.862Z,22.79
2017-08-19T08:41:43.170Z,22.88
2017-08-19T08:42:45.105Z,23.07
2017-08-19T08:43:47.008Z,23.04
2017-08-19T08:44:48.905Z,23.17
2017-08-19T08:45:51.090Z,23.25
2017-08-19T08:46:53.011Z,23.28
2017-08-19T08:47:54.912Z,23.28
2017-08-19T08:48:56.805Z,23.33
2017-08-19T08:50:10.979Z,23.27
2017-08-19T08:51:12.882Z,23.25
2017-08-19T08:52:15.097Z,23.31
2017-08-19T08:53:17.404Z,23.13
2017-08-19T08:54:19.263Z,23.00
2017-08-19T08:55:21.113Z,23.05
2017-08-19T08:56:22.998Z,23.23
2017-08-19T08:57:24.893Z,23.35
2017-08-19T08:58:26.812Z,23.55
2017-08-19T08:59:40.972Z,23.55
2017-08-19T09:00:42.875Z,23.55
2017-08-19T09:01:44.772Z,23.63
2017-08-19T09:02:46.661Z,23.65
2017-08-19T09:03:48.498Z,23.65
2017-08-19T09:04:50.335Z,23.54
2017-08-19T09:05:52.228Z,23.48
2017-08-19T09:06:54.133Z,23.28
2017-08-19T09:07:56.094Z,23.17
2017-08-19T09:09:10.270Z,23.22
2017-08-19T09:10:12.506Z,23.05
2017-08-19T09:11:14.410Z,23.07
2017-08-19T09:12:16.312Z,23.02
2017-08-19T09:13:18.151Z,23.01
2017-08-19T09:14:19.991Z,23.02
2017-08-19T09:15:22.220Z,23.04
2017-08-19T09:16:24.123Z,23.16
2017-08-19T09:17:26.063Z,22.88
2017-08-19T09:18:40.561Z,22.61
2017-08-19T09:19:42.467Z,22.43
2017-08-19T09:20:44.387Z,22.39
2017-08-19T09:21:46.625Z,22.42
2017-08-19T09:22:48.474Z,22.46
2017-08-19T09:23:50.309Z,22.65
2017-08-19T09:24:52.218Z,22.90
2017-08-19T09:25:54.193Z,23.07
2017-08-19T09:26:56.073Z,23.23
2017-08-19T09:28:10.709Z,23.48
2017-08-19T09:29:13.009Z,23.48
2017-08-19T09:30:15.306Z,23.46
2017-08-19T09:31:17.642Z,23.48
2017-08-19T09:32:19.581Z,23.48
2017-08-19T09:33:21.774Z,23.61
2017-08-19T09:34:23.708Z,23.65
2017-08-19T09:35:25.610Z,23.76
2017-08-19T09:36:27.521Z,23.94
2017-08-19T09:37:41.703Z,23.98
2017-08-19T09:38:44.104Z,24.06
2017-08-19T09:39:46.098Z,24.27
2017-08-19T09:40:47.995Z,24.37
2017-08-19T09:41:49.855Z,24.24
2017-08-19T09:42:51.710Z,24.20
2017-08-19T09:43:53.978Z,24.16
2017-08-19T09:44:55.902Z,24.20
2017-08-19T09:45:57.800Z,24.02
2017-08-19T09:47:11.970Z,23.79
2017-08-19T09:48:13.861Z,23.78
2017-08-19T09:49:15.760Z,23.73
2017-08-19T09:50:18.021Z,24.00
2017-08-19T09:51:19.903Z,23.97
2017-08-19T09:52:21.723Z,23.97
2017-08-19T09:53:23.622Z,23.76
2017-08-19T09:54:25.569Z,23.66
2017-08-19T09:55:27.448Z,23.66
2017-08-19T09:56:41.623Z,23.94
2017-08-19T09:57:43.532Z,24.10
2017-08-19T09:58:45.465Z,24.47
2017-08-19T09:59:47.697Z,24.67
2017-08-19T10:00:49.547Z,24.81
2017-08-19T10:01:51.392Z,24.91
2017-08-19T10:02:53.284Z,24.90
2017-08-19T10:03:55.190Z,25.10
2017-08-19T10:04:57.082Z,25.20
2017-08-19T10:06:11.575Z,25.15
2017-08-19T10:07:13.478Z,25.09
2017-08-19T10:08:15.707Z,25.32
2017-08-19T10:09:17.990Z,25.36
2017-08-19T10:10:19.840Z,25.62
2017-08-19T10:11:21.685Z,25.82
2017-08-19T10:12:23.577Z,25.90
2017-08-19T10:13:25.474Z,25.73
2017-08-19T10:14:27.711Z,25.55
2017-08-19T10:15:41.904Z,25.13
2017-08-19T10:16:44.131Z,25.03
2017-08-19T10:17:46.408Z,24.87
2017-08-19T10:18:48.648Z,24.83
2017-08-19T10:19:50.848Z,24.88
2017-08-19T10:20:53.051Z,24.95
2017-08-19T10:21:55.297Z,25.06
2017-08-19T10:22:57.564Z,25.14
2017-08-19T10:23:59.807Z,25.14
2017-08-19T10:25:14.347Z,25.03
2017-08-19T10:26:16.586Z,25.06
2017-08-19T10:27:18.834Z,25.15
2017-08-19T10:28:20.779Z,25.30
2017-08-19T10:29:22.955Z,25.13
2017-08-19T10:30:24.805Z,25.23
2017-08-19T10:31:27.043Z,25.15
2017-08-19T10:32:29.400Z,25.09
2017-08-19T10:33:31.738Z,24.93
2017-08-19T10:34:46.554Z,24.78
2017-08-19T10:35:48.813Z,24.73
2017-08-19T10:36:51.094Z,24.84
2017-08-19T10:37:53.430Z,24.83
2017-08-19T10:38:55.858Z,24.99
2017-08-19T10:39:58.043Z,24.99
2017-08-19T10:41:00.351Z,24.90
2017-08-19T10:42:02.601Z,24.53
2017-08-19T10:43:04.856Z,24.22
2017-08-19T10:44:19.535Z,24.12
2017-08-19T10:45:21.895Z,24.05
2017-08-19T10:46:23.854Z,24.24
2017-08-19T10:47:26.088Z,24.42
2017-08-19T10:48:28.268Z,24.49
2017-08-19T10:49:30.450Z,24.73
2017-08-19T10:50:32.710Z,24.90
2017-08-19T10:51:34.986Z,24.73
2017-08-19T10:52:37.275Z,24.58
2017-08-19T10:53:51.795Z,24.67
2017-08-19T10:54:54.068Z,24.76
2017-08-19T10:55:56.347Z,24.83
2017-08-19T10:56:58.620Z,24.78
2017-08-19T10:58:01.050Z,24.91
2017-08-19T10:59:03.307Z,25.10
2017-08-19T11:00:05.544Z,25.33
2017-08-19T11:01:07.782Z,25.75
2017-08-19T11:02:09.817Z,25.88
2017-08-19T11:03:24.339Z,25.97
2017-08-19T11:04:26.612Z,25.85
2017-08-19T11:05:28.962Z,25.87
2017-08-19T11:06:31.295Z,25.92
2017-08-19T11:07:33.522Z,25.99
2017-08-19T11:08:35.466Z,26.10
2017-08-19T11:09:37.717Z,26.28
2017-08-19T11:10:40.026Z,26.48
2017-08-19T11:11:42.330Z,26.52
2017-08-19T11:12:56.657Z,26.48
2017-08-19T11:13:58.961Z,26.50
2017-08-19T11:15:01.335Z,26.54
2017-08-19T11:16:03.303Z,26.67
2017-08-19T11:17:05.488Z,26.84
2017-08-19T11:18:07.708Z,26.92
2017-08-19T11:19:09.977Z,26.67
2017-08-19T11:20:12.354Z,26.39
2017-08-19T11:21:14.716Z,25.95
2017-08-19T11:22:28.916Z,25.60
2017-08-19T11:23:30.818Z,25.36
2017-08-19T11:24:32.717Z,25.40
2017-08-19T11:25:34.628Z,25.54
2017-08-19T11:26:36.462Z,25.79
2017-08-19T11:27:38.297Z,25.94
2017-08-19T11:28:40.205Z,26.05
2017-08-19T11:29:42.137Z,26.18
2017-08-19T11:30:44.025Z,26.02
2017-08-19T11:31:58.254Z,25.94
2017-08-19T11:33:00.148Z,25.90
2017-08-19T11:34:02.046Z,26.05
2017-08-19T11:35:03.957Z,26.12
2017-08-19T11:36:05.799Z,26.18
2017-08-19T11:37:07.668Z,26.21
2017-08-19T11:38:09.568Z,26.12
2017-08-19T11:39:11.470Z,26.15
2017-08-19T11:40:13.380Z,26.10
2017-08-19T11:41:27.550Z,26.29
2017-08-19T11:42:29.450Z,26.50
2017-08-19T11:43:31.353Z,26.54
2017-08-19T11:44:33.255Z,26.75
2017-08-19T11:45:35.082Z,26.84
2017-08-19T11:46:36.948Z,27.04
2017-08-19T11:47:38.846Z,27.17
2017-08-19T11:48:40.745Z,27.22
2017-08-19T11:49:42.645Z,27.21
2017-08-19T11:50:56.816Z,27.34
2017-08-19T11:51:58.716Z,27.46
2017-08-19T11:53:00.622Z,27.57
2017-08-19T11:54:02.529Z,27.54
2017-08-19T11:55:04.364Z,27.70
2017-08-19T11:56:06.201Z,27.74
2017-08-19T11:57:08.115Z,27.75
2017-08-19T11:58:10.027Z,27.88
2017-08-19T11:59:11.908Z,27.96
2017-08-19T12:00:26.076Z,27.96
2017-08-19T12:01:27.994Z,28.07
2017-08-19T12:02:29.907Z,28.12
2017-08-19T12:03:31.805Z,28.25
2017-08-19T12:04:33.633Z,28.24
2017-08-19T12:05:35.484Z,28.34
2017-08-19T12:06:37.397Z,28.30
2017-08-19T12:07:39.296Z,28.41
2017-08-19T12:08:41.193Z,28.46
2017-08-19T12:09:55.372Z,28.39
2017-08-19T12:10:57.285Z,28.29
2017-08-19T12:11:59.185Z,28.37
2017-08-19T12:13:01.091Z,28.36
2017-08-19T12:14:02.923Z,28.41
2017-08-19T12:15:04.782Z,28.29
2017-08-19T12:16:06.678Z,28.22
2017-08-19T12:17:08.642Z,28.22
2017-08-19T12:18:10.533Z,28.14
2017-08-19T12:19:24.772Z,28.11
2017-08-19T12:20:26.677Z,28.14
2017-08-19T12:21:28.582Z,28.15
2017-08-19T12:22:30.479Z,28.17
2017-08-19T12:23:32.326Z,28.22
2017-08-19T12:24:34.174Z,28.19
2017-08-19T12:25:36.085Z,28.22
2017-08-19T12:26:37.975Z,28.33
2017-08-19T12:27:39.879Z,28.34
2017-08-19T12:28:54.172Z,28.33
2017-08-19T12:29:56.070Z,28.37
2017-08-19T12:30:57.965Z,28.55
2017-08-19T12:31:59.877Z,28.44
2017-08-19T12:33:02.220Z,28.41
2017-08-19T12:34:04.079Z,28.54
2017-08-19T12:35:05.983Z,28.56
2017-08-19T12:36:07.885Z,28.64
2017-08-19T12:37:09.781Z,28.70
2017-08-19T12:38:23.957Z,28.73
2017-08-19T12:39:25.862Z,28.70
2017-08-19T12:40:27.758Z,28.55
2017-08-19T12:41:29.665Z,28.58
2017-08-19T12:42:31.509Z,28.40
2017-08-19T12:43:33.355Z,28.33
2017-08-19T12:44:35.265Z,28.34
2017-08-19T12:45:37.161Z,28.30
2017-08-19T12:46:39.109Z,28.19
2017-08-19T12:47:53.331Z,28.11
2017-08-19T12:48:55.258Z,27.99
2017-08-19T12:49:57.149Z,27.99
2017-08-19T12:50:59.057Z,28.06
2017-08-19T12:52:00.902Z,28.06
2017-08-19T12:53:02.746Z,27.97
2017-08-19T12:54:04.651Z,27.97
2017-08-19T12:55:06.517Z,28.00
2017-08-19T12:56:08.355Z,27.97
2017-08-19T12:57:22.533Z,27.96
2017-08-19T12:58:24.441Z,27.94
2017-08-19T12:59:26.346Z,27.94
2017-08-19T13:00:28.245Z,27.88
2017-08-19T13:01:30.083Z,27.81
2017-08-19T13:02:31.925Z,27.99
2017-08-19T13:03:33.819Z,28.03
2017-08-19T13:04:35.713Z,28.03
2017-08-19T13:05:37.621Z,28.24
2017-08-19T13:06:51.813Z,28.22
2017-08-19T13:07:53.714Z,28.29
2017-08-19T13:08:55.610Z,28.24
2017-08-19T13:09:57.570Z,28.22
2017-08-19T13:10:59.460Z,28.24
2017-08-19T13:12:01.313Z,28.29
2017-08-19T13:13:03.211Z,28.37
2017-08-19T13:14:05.108Z,28.40
2017-08-19T13:15:07.012Z,28.55
2017-08-19T13:16:21.184Z,28.68
2017-08-19T13:17:23.089Z,28.77
2017-08-19T13:18:24.993Z,28.90
2017-08-19T13:19:26.893Z,28.83
2017-08-19T13:20:28.748Z,28.77
2017-08-19T13:21:30.589Z,29.02
2017-08-19T13:22:32.480Z,29.11
2017-08-19T13:23:34.378Z,29.19
2017-08-19T13:24:36.289Z,29.24
2017-08-19T13:25:50.455Z,29.34
2017-08-19T13:26:52.363Z,29.31
2017-08-19T13:27:54.271Z,29.27
2017-08-19T13:28:56.174Z,29.24
2017-08-19T13:29:58.008Z,29.19
2017-08-19T13:30:59.856Z,29.16
2017-08-19T13:32:01.767Z,29.06
2017-08-19T13:33:03.678Z,28.98
2017-08-19T13:34:05.557Z,29.02
2017-08-19T13:35:19.742Z,28.92